Time;durP1;ratioP1;P1;durP2;ratioP2;P2;SDS_P1;SDS_P2;PMS_P1;PMS_P2;Temp;Humidity;BMP_temperature;BMP_pressure;BME280_temperature;BME280_humidity;BME280_pressure;Samples;Min_cycle;Max_cycle;Signal;HPM_P1;HPM_P2
2022/01/20 00:00:14;;;;;;;343.90;83.15;;;;;;;0.52;64.19;100475.72;341147;28;856;-75
2022/01/20 00:00:33;;;;;;;338.63;80.30;;;;;;;0.50;64.27;100472.28;341224;28;809;-75
2022/01/20 00:01:16;;;;;;;348.88;83.80;;;;;;;0.55;63.93;100477.47;341125;28;841;-75
2022/01/20 00:02:07;;;;;;;350.20;83.95;;;;;;;0.53;64.59;100471.44;342241;28;890;-74
2022/01/20 00:02:18;;;;;;;349.42;84.55;;;;;;;0.52;64.06;100477.44;342437;28;1559;-73
2022/01/20 00:02:31;;;;;;;347.08;84.13;;;;;;;0.52;64.47;100477.44;339100;28;1332;-73
2022/01/20 00:02:42;;;;;;;346.70;84.10;;;;;;;0.53;64.27;100476.59;340856;28;1347;-73
2022/01/20 00:02:58;;;;;;;347.85;83.40;;;;;;;0.55;63.96;100480.06;337766;28;1755;-73
2022/01/20 00:03:13;;;;;;;351.83;83.70;;;;;;;0.54;64.16;100479.19;339302;28;1450;-73
2022/01/20 00:03:30;;;;;;;349.20;82.97;;;;;;;0.54;63.84;100488.63;339863;29;1327;-74
2022/01/20 00:03:42;;;;;;;347.85;83.43;;;;;;;0.55;63.92;100477.47;341370;28;937;-74
2022/01/20 00:03:54;;;;;;;350.60;85.05;;;;;;;0.55;64.05;100477.47;339678;29;1375;-73
2022/01/20 00:04:14;;;;;;;349.48;85.15;;;;;;;0.55;64.08;100474.91;340832;28;1446;-73
2022/01/20 00:04:33;;;;;;;348.73;85.45;;;;;;;0.55;63.96;100480.06;342570;28;949;-74
2022/01/20 00:04:47;;;;;;;345.30;81.55;;;;;;;0.56;63.44;100480.09;340993;28;2431;-74
2022/01/20 00:05:11;;;;;;;344.33;81.00;;;;;;;0.57;63.71;100480.94;341181;28;1405;-74
2022/01/20 00:07:42;;;;;;;352.38;84.90;;;;;;;0.47;63.84;100477.38;337030;29;913;-73
2022/01/20 00:26:06;;;;;;;350.48;82.78;;;;;;;0.44;64.81;100461.88;341403;28;991;-74
2022/01/20 00:26:23;;;;;;;347.85;81.75;;;;;;;0.43;64.84;100464.47;337341;29;1135;-74
2022/01/20 00:26:44;;;;;;;345.27;80.55;;;;;;;0.45;64.48;100457.59;337460;29;861;-74
2022/01/20 00:26:56;;;;;;;347.95;81.65;;;;;;;0.46;64.01;100456.75;339024;29;957;-74
2022/01/20 00:27:10;;;;;;;353.13;83.20;;;;;;;0.43;64.73;100461.91;341075;28;1563;-74
2022/01/20 00:27:22;;;;;;;351.98;83.10;;;;;;;0.41;64.60;100455.88;342576;28;1076;-74
2022/01/20 00:27:36;;;;;;;348.17;82.38;;;;;;;0.40;64.55;100456.72;337944;29;886;-74
2022/01/20 00:27:54;;;;;;;347.30;83.78;;;;;;;0.37;64.26;100465.25;339639;28;845;-74
2022/01/20 00:28:15;;;;;;;347.90;84.07;;;;;;;0.30;65.51;100464.28;340436;28;1228;-74
2022/01/20 00:28:50;;;;;;;347.60;82.80;;;;;;;0.27;65.35;100464.25;338526;29;891;-74
2022/01/20 00:28:59;;;;;;;343.90;82.85;;;;;;;0.22;65.25;100458.16;337311;29;1070;-74
2022/01/20 00:29:19;;;;;;;343.95;82.95;;;;;;;0.25;65.17;100459.91;342460;28;1435;-74
2022/01/20 00:29:32;;;;;;;345.65;81.03;;;;;;;0.24;65.49;100466.78;339865;29;1405;-75
2022/01/20 00:30:50;;;;;;;346.00;81.97;;;;;;;0.28;65.56;100459.97;338829;29;1137;-75
2022/01/20 00:31:12;;;;;;;346.98;81.55;;;;;;;0.26;65.35;100462.53;340822;28;896;-75
2022/01/20 00:31:50;;;;;;;350.15;82.32;;;;;;;0.22;65.37;100460.75;341208;28;885;-75
2022/01/20 00:32:12;;;;;;;344.77;81.97;;;;;;;0.21;66.10;100464.16;338537;29;949;-75
2022/01/20 00:32:30;;;;;;;347.15;80.45;;;;;;;0.23;65.57;100462.47;338992;29;1116;-75
2022/01/20 00:33:14;;;;;;;348.33;81.30;;;;;;;0.25;65.36;100465.06;335587;29;791;-76
2022/01/20 00:33:56;;;;;;;346.10;81.95;;;;;;;0.26;65.15;100459.94;344117;28;1297;-75
2022/01/20 00:34:31;;;;;;;349.25;81.90;;;;;;;0.25;66.26;100460.78;341299;28;1145;-75
2022/01/20 00:35:30;;;;;;;344.92;83.65;;;;;;;0.26;65.99;100466.81;339940;29;821;-75
2022/01/20 00:37:16;;;;;;;348.80;84.22;;;;;;;0.28;66.22;100459.97;338616;29;1201;-74
2022/01/20 00:37:28;;;;;;;354.20;83.80;;;;;;;0.28;65.86;100460.84;339840;28;1887;-75
2022/01/20 00:37:39;;;;;;;355.86;86.58;;;;;;;0.30;65.83;100453.13;336524;29;1586;-75
2022/01/20 00:37:49;;;;;;;359.43;87.80;;;;;;;0.32;66.33;100460.03;336175;29;1203;-74
2022/01/20 00:38:00;;;;;;;358.67;87.43;;;;;;;0.33;66.40;100459.19;337909;29;1273;-74
2022/01/20 00:38:10;;;;;;;354.33;86.93;;;;;;;0.30;66.40;100454.00;341322;28;1232;-74
2022/01/20 00:38:21;;;;;;;352.73;87.53;;;;;;;0.29;66.00;100460.00;341173;28;925;-75
2022/01/20 00:38:32;;;;;;;354.17;87.40;;;;;;;0.30;66.57;100460.84;339722;28;1556;-75
2022/01/20 00:38:45;;;;;;;356.10;85.73;;;;;;;0.30;66.52;100461.72;338581;29;1265;-74
2022/01/20 00:38:56;;;;;;;351.02;83.50;;;;;;;0.29;65.98;100461.69;341191;28;1386;-74
2022/01/20 00:39:06;;;;;;;350.25;84.30;;;;;;;0.30;65.74;100460.84;342504;28;1359;-75
2022/01/20 00:39:17;;;;;;;351.93;86.43;;;;;;;0.32;65.85;100457.47;341200;28;1426;-74
2022/01/20 00:39:28;;;;;;;354.20;86.97;;;;;;;0.31;65.72;100454.88;341337;28;1039;-74
2022/01/20 00:39:38;;;;;;;353.08;85.82;;;;;;;0.31;65.91;100454.88;339926;29;1213;-74
2022/01/20 00:39:48;;;;;;;352.43;85.80;;;;;;;0.32;65.98;100454.88;341207;28;1342;-74
2022/01/20 00:39:59;;;;;;;352.80;86.53;;;;;;;0.33;65.48;100454.03;340051;28;1639;-74
2022/01/20 00:40:10;;;;;;;355.70;86.63;;;;;;;0.32;65.61;100452.31;341150;28;1407;-74
2022/01/20 00:40:21;;;;;;;356.53;85.33;;;;;;;0.30;65.59;100456.56;341163;28;1316;-74
2022/01/20 00:40:32;;;;;;;355.05;84.72;;;;;;;0.25;65.84;100460.78;339864;28;1405;-74
2022/01/20 00:40:42;;;;;;;350.50;84.33;;;;;;;0.24;65.80;100453.03;339979;29;1317;-74
2022/01/20 00:40:54;;;;;;;350.63;83.40;;;;;;;0.21;66.09;100456.44;341347;28;901;-76
2022/01/20 00:41:05;;;;;;;350.00;83.72;;;;;;;0.20;66.06;100457.28;338646;29;1787;-75
2022/01/20 00:41:15;;;;;;;351.52;83.30;;;;;;;0.21;66.42;100464.16;337191;29;858;-75
2022/01/20 00:41:25;;;;;;;352.95;84.45;;;;;;;0.21;65.45;100453.88;337377;29;1081;-75
2022/01/20 00:41:36;;;;;;;352.23;84.57;;;;;;;0.23;65.26;100456.47;337137;29;1266;-75
2022/01/20 00:41:46;;;;;;;348.60;83.90;;;;;;;0.24;65.59;100459.06;337391;29;883;-75
2022/01/20 00:41:56;;;;;;;348.83;82.00;;;;;;;0.23;65.71;100453.88;338739;29;763;-75
2022/01/20 00:42:08;;;;;;;348.67;82.18;;;;;;;0.24;65.62;100453.91;339687;29;1317;-75
2022/01/20 00:42:19;;;;;;;350.77;82.88;;;;;;;0.23;65.99;100451.31;341579;28;1430;-75
2022/01/20 00:42:29;;;;;;;347.90;84.63;;;;;;;0.24;65.52;100453.91;342055;28;1635;-74
2022/01/20 00:42:39;;;;;;;350.23;83.88;;;;;;;0.24;65.89;100453.91;335449;29;938;-75
2022/01/20 00:42:50;;;;;;;347.57;83.30;;;;;;;0.23;65.84;100451.31;338054;28;829;-75
2022/01/20 00:43:01;;;;;;;345.33;82.43;;;;;;;0.21;65.36;100451.28;336727;29;759;-73
2022/01/20 00:43:12;;;;;;;346.98;83.00;;;;;;;0.22;65.95;100454.72;339790;28;1543;-73
2022/01/20 00:43:22;;;;;;;348.77;83.70;;;;;;;0.22;65.57;100455.59;340979;29;1120;-74
2022/01/20 00:43:32;;;;;;;348.20;84.15;;;;;;;0.21;66.25;100459.00;339570;29;1526;-74
2022/01/20 00:43:43;;;;;;;345.93;84.50;;;;;;;0.18;66.13;100453.81;340044;29;885;-75
2022/01/20 00:43:54;;;;;;;345.22;83.44;;;;;;;0.16;66.29;100450.34;342665;28;791;-75
2022/01/20 00:44:05;;;;;;;347.73;83.70;;;;;;;0.15;66.35;100452.91;342641;28;861;-75
2022/01/20 00:44:15;;;;;;;349.35;82.45;;;;;;;0.15;65.91;100453.78;341230;28;1256;-75
2022/01/20 00:44:26;;;;;;;348.17;82.67;;;;;;;0.13;65.99;100450.31;339975;29;964;-74
2022/01/20 00:44:36;;;;;;;348.05;82.00;;;;;;;0.13;66.40;100446.88;342715;28;1438;-74
2022/01/20 00:44:46;;;;;;;349.07;82.07;;;;;;;0.12;66.33;100456.31;341407;29;890;-74
2022/01/20 00:44:57;;;;;;;353.90;83.40;;;;;;;0.11;66.51;100444.28;338561;29;1308;-74
2022/01/20 00:45:08;;;;;;;352.73;83.63;;;;;;;0.11;66.22;100451.13;339812;28;1609;-74
2022/01/20 00:45:19;;;;;;;347.67;83.40;;;;;;;0.09;66.23;100453.69;341207;29;932;-74
2022/01/20 00:45:29;;;;;;;349.20;83.30;;;;;;;0.07;65.97;100450.22;342304;28;1720;-74
2022/01/20 00:45:40;;;;;;;349.50;82.00;;;;;;;0.07;66.68;100447.66;341436;28;1670;-74
2022/01/20 00:45:50;;;;;;;349.15;81.95;;;;;;;0.07;66.98;100449.34;343914;28;1334;-74
2022/01/20 00:46:01;;;;;;;347.35;82.13;;;;;;;0.05;67.12;100451.03;343795;28;803;-74
2022/01/20 00:46:11;;;;;;;347.13;82.67;;;;;;;0.06;66.64;100447.63;342649;28;917;-74
2022/01/20 00:46:22;;;;;;;348.80;83.17;;;;;;;0.06;66.76;100451.06;340014;29;1214;-74
2022/01/20 00:46:32;;;;;;;350.15;83.03;;;;;;;0.05;66.59;100441.59;342679;28;1224;-74
2022/01/20 00:46:42;;;;;;;351.00;84.00;;;;;;;0.06;66.58;100445.03;342520;28;1358;-74
2022/01/20 00:46:53;;;;;;;352.95;83.97;;;;;;;0.05;66.48;100445.88;341385;29;810;-74
2022/01/20 00:47:03;;;;;;;351.73;83.13;;;;;;;0.05;66.66;100448.47;341234;29;1240;-74
2022/01/20 00:47:14;;;;;;;352.67;82.53;;;;;;;0.04;66.44;100447.59;338202;29;865;-75
2022/01/20 00:47:25;;;;;;;350.08;83.10;;;;;;;0.04;66.45;100450.16;336059;29;1486;-75
2022/01/20 00:47:35;;;;;;;350.30;84.63;;;;;;;0.00;67.12;100446.69;337682;29;932;-74
2022/01/20 00:47:46;;;;;;;350.57;85.87;;;;;;;0.05;67.01;100451.03;340568;28;1262;-75
2022/01/20 00:47:56;;;;;;;348.98;87.47;;;;;;;0.00;67.13;100449.25;338947;28;1389;-74
2022/01/20 00:48:06;;;;;;;349.33;86.90;;;;;;;0.00;67.43;100443.28;341319;28;623;-76
2022/01/20 00:48:17;;;;;;;352.00;85.28;;;;;;;0.00;67.45;100443.28;339500;29;1602;-75
2022/01/20 00:48:27;;;;;;;356.27;84.43;;;;;;;0.01;67.44;100450.13;343725;28;936;-75
2022/01/20 00:48:38;;;;;;;354.15;83.65;;;;;;;0.00;67.30;100449.25;343840;28;1362;-75
2022/01/20 00:48:49;;;;;;;348.98;83.10;;;;;;;0.00;66.64;100449.25;343835;28;1419;-75
2022/01/20 00:48:59;;;;;;;346.23;81.60;;;;;;;0.01;67.07;100447.56;342742;28;889;-75
2022/01/20 00:49:10;;;;;;;344.88;80.72;;;;;;;-0.01;66.72;100441.53;343814;28;1286;-75
2022/01/20 00:49:20;;;;;;;346.50;80.70;;;;;;;0.00;67.01;100444.09;343903;28;1175;-75
2022/01/20 00:49:30;;;;;;;348.10;80.85;;;;;;;0.00;66.87;100448.44;342587;28;829;-75
2022/01/20 00:49:41;;;;;;;350.37;81.60;;;;;;;-0.01;66.53;100439.84;342542;28;1419;-75
2022/01/20 00:49:52;;;;;;;348.50;82.50;;;;;;;0.00;67.07;100440.72;346499;28;1217;-75
2022/01/20 00:50:02;;;;;;;347.07;83.67;;;;;;;0.00;67.04;100448.44;346728;28;797;-75
2022/01/20 00:50:12;;;;;;;347.90;83.70;;;;;;;-0.01;66.83;100446.69;344026;28;861;-75
2022/01/20 00:50:24;;;;;;;350.80;82.90;;;;;;;-0.02;66.91;100448.41;341221;28;1268;-75
2022/01/20 00:50:35;;;;;;;351.23;83.15;;;;;;;-0.02;67.15;100450.97;342593;28;1434;-75
2022/01/20 00:50:46;;;;;;;348.70;82.57;;;;;;;-0.01;66.99;100446.69;343996;28;1280;-75
2022/01/20 00:50:56;;;;;;;344.50;81.93;;;;;;;0.00;66.76;100443.28;341230;28;1234;-75
2022/01/20 00:51:08;;;;;;;344.30;82.17;;;;;;;-0.04;67.14;100442.38;342554;28;952;-75
2022/01/20 00:51:19;;;;;;;346.48;82.78;;;;;;;-0.04;67.25;100441.50;345168;28;1280;-75
2022/01/20 00:51:29;;;;;;;347.63;84.10;;;;;;;-0.04;67.03;100442.38;341343;28;1398;-75
2022/01/20 00:51:40;;;;;;;347.85;84.30;;;;;;;-0.03;66.95;100440.66;345122;28;1397;-75
2022/01/20 00:51:50;;;;;;;347.93;85.17;;;;;;;-0.03;67.53;100443.22;344045;28;826;-75
2022/01/20 00:52:01;;;;;;;345.57;84.50;;;;;;;-0.01;66.74;100444.13;343499;28;1618;-75
2022/01/20 00:52:11;;;;;;;347.20;83.80;;;;;;;0.01;66.91;100444.97;339931;29;1897;-75
2022/01/20 00:52:22;;;;;;;349.23;82.90;;;;;;;0.03;67.31;100443.28;340749;29;1533;-75
2022/01/20 00:52:32;;;;;;;348.50;82.20;;;;;;;0.04;66.85;100444.16;342711;28;1768;-75
2022/01/20 00:52:42;;;;;;;347.37;83.10;;;;;;;0.07;66.97;100446.78;344048;28;862;-75
2022/01/20 00:52:53;;;;;;;344.13;82.28;;;;;;;0.06;67.04;100442.47;342577;28;1698;-75
2022/01/20 00:53:03;;;;;;;344.20;82.57;;;;;;;0.08;67.02;100445.94;343923;28;1232;-75
2022/01/20 00:53:14;;;;;;;341.38;82.50;;;;;;;0.07;67.11;100441.63;340079;29;1284;-75
2022/01/20 00:53:24;;;;;;;343.67;83.47;;;;;;;0.06;66.82;100443.34;343750;28;1175;-75
2022/01/20 00:53:35;;;;;;;348.15;83.57;;;;;;;0.05;66.89;100441.59;343746;28;1363;-75
2022/01/20 00:53:45;;;;;;;350.48;83.35;;;;;;;0.05;66.81;100441.59;339851;28;1331;-75
2022/01/20 00:53:56;;;;;;;351.20;83.43;;;;;;;0.05;66.62;100439.03;341284;29;1229;-75
2022/01/20 00:54:06;;;;;;;350.58;83.03;;;;;;;0.07;66.97;100442.50;341231;28;1137;-75
2022/01/20 00:54:17;;;;;;;354.70;83.90;;;;;;;0.07;66.35;100439.94;342611;28;1173;-75
2022/01/20 00:54:27;;;;;;;353.48;83.55;;;;;;;0.08;66.65;100440.78;342583;28;1234;-75
2022/01/20 00:54:37;;;;;;;351.93;82.90;;;;;;;0.08;67.16;100446.81;343872;28;1036;-75
2022/01/20 00:54:48;;;;;;;347.70;81.80;;;;;;;0.08;66.66;100441.66;341348;29;930;-74
2022/01/20 00:54:58;;;;;;;346.13;81.33;;;;;;;0.09;67.29;100442.53;342443;28;1324;-74
2022/01/20 00:55:09;;;;;;;345.45;80.93;;;;;;;0.09;66.82;100437.38;342504;28;1310;-74
2022/01/20 00:55:20;;;;;;;344.40;80.93;;;;;;;0.11;66.77;100445.97;343805;28;1978;-75
2022/01/20 00:55:30;;;;;;;344.00;81.50;;;;;;;0.09;66.80;100440.81;342677;28;826;-75
2022/01/20 00:55:41;;;;;;;344.07;81.73;;;;;;;0.07;66.88;100439.06;338635;29;1236;-75
2022/01/20 00:55:51;;;;;;;344.55;83.38;;;;;;;0.08;67.43;100435.66;343937;28;1325;-75
2022/01/20 00:56:02;;;;;;;344.97;82.90;;;;;;;0.05;66.71;100441.59;344071;28;933;-75
2022/01/20 00:56:12;;;;;;;345.23;82.17;;;;;;;0.06;66.79;100443.34;344027;28;896;-75
2022/01/20 00:56:23;;;;;;;346.93;81.60;;;;;;;0.04;66.69;100439.00;341201;28;1295;-75
2022/01/20 00:56:33;;;;;;;346.95;82.50;;;;;;;0.02;66.81;100436.41;341101;29;1351;-75
2022/01/20 00:56:43;;;;;;;346.77;83.20;;;;;;;0.05;67.28;100446.75;344002;28;940;-75
2022/01/20 00:56:54;;;;;;;347.45;83.68;;;;;;;0.04;67.03;100447.59;344034;28;952;-75
2022/01/20 00:57:04;;;;;;;351.70;84.33;;;;;;;0.03;66.87;100443.28;344005;28;815;-75
2022/01/20 00:57:15;;;;;;;352.73;84.22;;;;;;;0.04;66.50;100445.03;339619;29;1663;-75
2022/01/20 00:57:26;;;;;;;350.35;82.30;;;;;;;0.05;66.84;100444.19;342702;28;818;-75
2022/01/20 00:57:36;;;;;;;348.63;80.77;;;;;;;0.04;67.00;100439.88;342620;28;960;-75
2022/01/20 00:57:47;;;;;;;349.67;80.40;;;;;;;0.05;66.91;100441.59;341315;29;826;-75
2022/01/20 00:57:57;;;;;;;351.50;82.37;;;;;;;0.04;66.96;100447.59;342524;28;1177;-75
2022/01/20 00:58:07;;;;;;;351.85;83.80;;;;;;;0.04;66.52;100439.00;342564;28;1216;-76
2022/01/20 00:58:18;;;;;;;350.73;83.73;;;;;;;0.00;67.12;100443.28;341925;28;1266;-76
2022/01/20 00:58:28;;;;;;;348.95;83.53;;;;;;;0.01;66.48;100439.84;341268;28;1193;-76
2022/01/20 00:58:39;;;;;;;346.30;82.97;;;;;;;0.00;66.94;100443.28;342675;28;897;-74
2022/01/20 00:58:49;;;;;;;346.63;83.85;;;;;;;0.00;67.19;100438.97;341219;28;1410;-74
2022/01/20 00:58:59;;;;;;;347.23;83.37;;;;;;;0.00;66.71;100444.09;341308;29;858;-75
2022/01/20 00:59:10;;;;;;;348.45;82.88;;;;;;;0.00;66.86;100446.69;341286;29;663;-75
2022/01/20 00:59:20;;;;;;;350.00;82.80;;;;;;;-0.01;67.22;100441.53;341191;29;1382;-75
2022/01/20 00:59:31;;;;;;;353.13;84.22;;;;;;;0.00;66.93;100443.28;339949;29;850;-75
2022/01/20 00:59:41;;;;;;;351.83;85.97;;;;;;;0.00;67.16;100444.09;339833;29;931;-75
2022/01/20 00:59:52;;;;;;;350.33;86.53;;;;;;;-0.03;67.38;100444.09;339758;29;1223;-75
2022/01/20 01:00:06;;;;;;;349.17;85.77;;;;;;;-0.01;67.17;100447.56;342349;28;1345;-75
2022/01/20 01:00:16;;;;;;;349.88;83.40;;;;;;;0.01;67.06;100439.84;343964;28;1035;-76
2022/01/20 01:00:27;;;;;;;349.30;82.13;;;;;;;-0.02;67.19;100439.81;343855;28;1276;-75
2022/01/20 01:00:37;;;;;;;349.65;82.53;;;;;;;-0.02;66.91;100442.38;341170;29;1380;-75
2022/01/20 01:00:48;;;;;;;349.10;82.80;;;;;;;-0.02;67.00;100442.38;341302;29;830;-75
2022/01/20 01:00:58;;;;;;;348.90;83.60;;;;;;;-0.04;67.46;100436.34;341115;29;965;-75
2022/01/20 01:01:09;;;;;;;349.60;83.10;;;;;;;-0.06;67.05;100438.03;345291;28;880;-75
2022/01/20 01:01:19;;;;;;;350.17;82.77;;;;;;;-0.04;67.32;100441.50;345170;28;1386;-75
2022/01/20 01:01:29;;;;;;;350.40;81.73;;;;;;;-0.06;67.33;100443.19;339860;29;1278;-75
2022/01/20 01:01:40;;;;;;;346.67;81.53;;;;;;;-0.08;66.88;100439.72;338506;29;1275;-75
2022/01/20 01:01:50;;;;;;;346.57;83.53;;;;;;;-0.07;67.35;100437.16;341424;29;989;-75
2022/01/20 01:02:04;;;;;;;345.80;84.70;;;;;;;-0.07;67.44;100431.16;341271;29;964;-75
2022/01/20 01:02:14;;;;;;;348.15;84.15;;;;;;;-0.05;66.94;100443.22;341328;29;924;-75
2022/01/20 01:02:25;;;;;;;349.43;82.07;;;;;;;-0.03;66.96;100433.81;341342;29;933;-75
2022/01/20 01:02:35;;;;;;;351.50;81.95;;;;;;;-0.04;67.19;100436.34;341211;29;1342;-75
2022/01/20 01:02:46;;;;;;;349.77;82.87;;;;;;;-0.04;66.69;100434.66;342540;28;908;-74
2022/01/20 01:02:56;;;;;;;352.17;84.05;;;;;;;-0.03;67.00;100436.38;342733;28;909;-74
2022/01/20 01:03:06;;;;;;;351.90;84.40;;;;;;;-0.02;67.35;100434.66;343044;28;1524;-74
2022/01/20 01:03:17;;;;;;;353.02;84.07;;;;;;;-0.02;67.29;100438.13;345115;28;1661;-74
2022/01/20 01:03:28;;;;;;;350.87;83.47;;;;;;;-0.01;67.26;100436.41;342504;28;1441;-74
2022/01/20 01:03:38;;;;;;;348.43;82.23;;;;;;;-0.01;66.86;100434.69;343832;28;1304;-74
2022/01/20 01:03:48;;;;;;;348.30;82.23;;;;;;;0.02;66.99;100431.28;342597;28;1389;-74
2022/01/20 01:03:59;;;;;;;349.88;82.47;;;;;;;0.00;66.71;100433.00;344033;28;810;-74
2022/01/20 01:04:09;;;;;;;354.10;82.97;;;;;;;0.02;67.20;100427.84;339840;29;1609;-74
2022/01/20 01:04:20;;;;;;;353.13;82.85;;;;;;;0.02;67.04;100425.25;341233;29;1032;-74
2022/01/20 01:04:30;;;;;;;350.40;81.90;;;;;;;-0.01;66.79;100428.69;342408;28;1176;-74
2022/01/20 01:04:41;;;;;;;346.00;81.75;;;;;;;-0.02;67.01;100434.66;341144;28;1260;-74
2022/01/20 01:04:51;;;;;;;345.45;81.93;;;;;;;-0.03;67.69;100430.38;339892;29;1396;-74
2022/01/20 01:05:03;;;;;;;348.90;83.73;;;;;;;-0.03;66.88;100435.50;339905;29;1276;-74
2022/01/20 01:05:13;;;;;;;352.88;84.10;;;;;;;-0.02;67.33;100429.53;341096;28;1247;-74
2022/01/20 01:05:26;;;;;;;352.33;83.78;;;;;;;-0.03;67.27;100432.94;341279;28;1414;-74
2022/01/20 01:05:45;;;;;;;349.67;83.53;;;;;;;-0.04;67.28;100431.22;339986;29;956;-74
2022/01/20 01:07:49;;;;;;;348.50;84.82;;;;;;;-0.04;66.80;100431.22;340027;29;795;-75
2022/01/20 01:07:59;;;;;;;343.48;81.24;;;;;;;-0.07;67.11;100426.00;340458;28;1200;-75
2022/01/20 01:08:11;;;;;;;345.33;82.23;;;;;;;-0.08;67.54;100429.44;339913;28;1322;-75
2022/01/20 01:08:21;;;;;;;349.56;81.46;;;;;;;-0.06;67.42;100430.31;342454;28;1328;-75
2022/01/20 01:08:32;;;;;;;352.73;82.67;;;;;;;-0.08;67.29;100426.84;345015;28;872;-75
2022/01/20 01:08:42;;;;;;;352.45;82.95;;;;;;;-0.08;67.24;100425.16;341310;29;882;-75
2022/01/20 01:08:53;;;;;;;353.27;84.63;;;;;;;-0.11;67.50;100419.97;345353;28;798;-75
2022/01/20 01:09:05;;;;;;;350.35;83.78;;;;;;;-0.12;67.42;100425.94;343978;28;1086;-75
2022/01/20 01:09:15;;;;;;;352.23;84.13;;;;;;;-0.14;67.45;100421.63;346588;28;967;-75
2022/01/20 01:09:26;;;;;;;352.38;83.72;;;;;;;-0.15;67.52;100422.47;343967;28;869;-75
2022/01/20 01:09:39;;;;;;;351.87;83.73;;;;;;;-0.15;67.94;100425.03;341227;29;1158;-75
2022/01/20 01:09:49;;;;;;;347.15;82.35;;;;;;;-0.17;67.62;100419.88;343978;28;901;-75
2022/01/20 01:09:59;;;;;;;348.70;82.70;;;;;;;-0.17;68.03;100419.00;342575;28;1173;-75
2022/01/20 01:10:11;;;;;;;352.17;82.37;;;;;;;-0.17;67.62;100426.72;342657;28;854;-75
2022/01/20 01:10:26;;;;;;;351.45;81.07;;;;;;;-0.17;68.03;100419.00;342760;28;882;-75
2022/01/20 01:10:39;;;;;;;345.20;80.43;;;;;;;-0.19;67.58;100426.69;343925;28;921;-75
2022/01/20 01:10:50;;;;;;;344.90;82.03;;;;;;;-0.17;67.36;100421.56;344018;28;865;-75
2022/01/20 01:11:01;;;;;;;347.50;83.22;;;;;;;-0.15;68.12;100422.47;343852;28;1272;-75
2022/01/20 01:11:11;;;;;;;346.45;83.82;;;;;;;-0.17;68.00;100425.00;343856;28;921;-75
2022/01/20 01:11:23;;;;;;;347.13;84.03;;;;;;;-0.17;67.32;100424.13;342506;28;1353;-75
2022/01/20 01:11:35;;;;;;;347.40;84.30;;;;;;;-0.16;67.66;100429.31;340509;29;1619;-75
2022/01/20 01:11:46;;;;;;;355.05;84.85;;;;;;;-0.16;67.71;100421.59;342665;28;877;-75
2022/01/20 01:12:01;;;;;;;357.05;84.35;;;;;;;-0.14;67.74;100425.06;343952;28;884;-75
2022/01/20 01:12:28;;;;;;;350.77;83.40;;;;;;;-0.13;67.26;100421.66;341426;29;1000;-75
2022/01/20 01:12:53;;;;;;;349.50;82.90;;;;;;;-0.13;67.29;100413.94;342535;28;975;-74
2022/01/20 01:13:09;;;;;;;346.88;82.63;;;;;;;-0.11;67.58;100419.09;343986;28;885;-74
2022/01/20 01:13:21;;;;;;;346.90;83.18;;;;;;;-0.10;67.18;100421.69;340996;28;1789;-75
2022/01/20 01:13:31;;;;;;;347.70;84.00;;;;;;;-0.11;67.02;100413.94;342076;28;1710;-75
2022/01/20 01:13:42;;;;;;;346.90;83.63;;;;;;;-0.12;67.23;100419.94;341209;29;1741;-75
2022/01/20 01:13:53;;;;;;;349.83;83.73;;;;;;;-0.12;67.08;100412.22;343939;28;934;-75
2022/01/20 01:14:04;;;;;;;350.88;84.70;;;;;;;-0.12;67.47;100415.66;345965;28;2104;-75
2022/01/20 01:14:17;;;;;;;353.83;84.80;;;;;;;-0.11;67.39;100408.81;344016;28;929;-75
2022/01/20 01:14:30;;;;;;;353.00;83.88;;;;;;;-0.10;67.07;100415.69;342461;28;1195;-75
2022/01/20 01:14:46;;;;;;;349.83;82.60;;;;;;;-0.11;67.74;100409.66;341218;29;1087;-75
2022/01/20 01:14:57;;;;;;;346.38;81.45;;;;;;;-0.10;67.80;100410.53;344822;28;1292;-75
2022/01/20 01:15:14;;;;;;;344.17;80.78;;;;;;;-0.10;67.45;100413.09;345309;28;869;-75
2022/01/20 01:15:39;;;;;;;347.63;81.57;;;;;;;-0.12;66.93;100412.22;342432;28;1910;-75
2022/01/20 01:15:51;;;;;;;350.38;81.18;;;;;;;-0.14;67.65;100409.63;339840;29;1308;-75
2022/01/20 01:16:01;;;;;;;348.75;82.05;;;;;;;-0.13;67.24;100410.50;337061;29;1371;-75
2022/01/20 01:16:13;;;;;;;349.05;83.70;;;;;;;-0.12;67.64;100407.06;339827;29;1833;-75
2022/01/20 01:16:34;;;;;;;349.42;84.43;;;;;;;-0.11;67.27;100409.66;338873;29;1822;-75
2022/01/20 01:20:16;;;;;;;345.88;81.40;;;;;;;-0.24;67.68;100406.88;343950;28;771;-74
2022/01/20 01:20:28;;;;;;;348.10;81.25;;;;;;;-0.22;66.96;100410.34;342561;28;857;-74
2022/01/20 01:21:10;;;;;;;350.63;81.88;;;;;;;-0.29;67.62;100401.66;342636;28;889;-76
2022/01/20 01:21:29;;;;;;;349.83;82.63;;;;;;;-0.25;66.98;100405.16;342307;28;1214;-75
2022/01/20 01:21:44;;;;;;;347.33;82.65;;;;;;;-0.29;66.98;100404.25;338416;29;1406;-74
2022/01/20 01:22:21;;;;;;;345.65;80.60;;;;;;;-0.27;66.92;100404.25;342645;28;976;-74
2022/01/20 01:22:31;;;;;;;352.13;82.07;;;;;;;-0.34;66.84;100405.88;342569;28;952;-74
2022/01/20 01:22:41;;;;;;;353.63;82.90;;;;;;;-0.32;67.46;100401.63;342573;28;889;-74
2022/01/20 01:22:52;;;;;;;350.73;83.23;;;;;;;-0.30;67.49;100401.63;344010;28;822;-74
2022/01/20 01:23:02;;;;;;;348.73;83.70;;;;;;;-0.31;67.68;100400.78;340165;29;866;-74
2022/01/20 01:23:13;;;;;;;346.63;82.63;;;;;;;-0.32;67.54;100401.63;343917;28;799;-74
2022/01/20 01:23:24;;;;;;;346.60;81.93;;;;;;;-0.35;67.90;100397.28;341002;28;1367;-74
2022/01/20 01:23:39;;;;;;;347.10;81.25;;;;;;;-0.39;67.71;100400.66;341019;28;1310;-74
2022/01/20 01:23:50;;;;;;;345.98;80.85;;;;;;;-0.44;68.20;100406.59;341281;29;869;-74
2022/01/20 01:24:00;;;;;;;345.13;81.10;;;;;;;-0.48;67.85;100405.69;343925;28;1484;-74
2022/01/20 01:24:11;;;;;;;347.33;82.17;;;;;;;-0.51;67.92;100403.06;342883;28;1444;-74
2022/01/20 01:24:21;;;;;;;347.33;81.88;;;;;;;-0.52;68.50;100400.47;346063;28;1790;-74
2022/01/20 01:24:31;;;;;;;347.07;81.60;;;;;;;-0.52;68.97;100401.31;341164;28;1388;-74
2022/01/20 01:24:43;;;;;;;344.23;80.20;;;;;;;-0.48;68.45;100407.38;343892;28;1065;-74
2022/01/20 01:24:55;;;;;;;347.27;81.20;;;;;;;-0.49;68.39;100393.66;342467;28;1241;-74
2022/01/20 01:25:06;;;;;;;351.02;81.28;;;;;;;-0.50;68.56;100394.50;345315;28;913;-74
2022/01/20 01:25:16;;;;;;;352.25;82.78;;;;;;;-0.51;68.72;100402.19;342417;28;1323;-74
2022/01/20 01:25:27;;;;;;;350.93;84.03;;;;;;;-0.50;68.68;100396.22;341214;28;1257;-74
2022/01/20 01:25:37;;;;;;;353.88;85.28;;;;;;;-0.49;68.99;100405.66;342590;28;1333;-74
2022/01/20 01:25:47;;;;;;;351.77;83.87;;;;;;;-0.49;68.50;100403.94;343913;28;1202;-74
2022/01/20 01:25:59;;;;;;;350.67;82.72;;;;;;;-0.49;69.11;100396.22;343964;28;920;-74
2022/01/20 01:26:16;;;;;;;347.95;82.75;;;;;;;-0.49;68.84;100391.09;342466;28;1382;-74
2022/01/20 01:26:28;;;;;;;350.02;82.47;;;;;;;-0.50;69.06;100389.34;343861;28;874;-74
2022/01/20 01:26:38;;;;;;;350.90;82.63;;;;;;;-0.52;69.01;100396.19;342445;28;1509;-74
2022/01/20 01:26:49;;;;;;;351.70;82.75;;;;;;;-0.50;69.08;100396.22;345264;28;1332;-75
2022/01/20 01:26:59;;;;;;;350.70;82.57;;;;;;;-0.50;69.14;100397.06;343977;28;957;-75
2022/01/20 01:27:10;;;;;;;350.67;81.55;;;;;;;-0.51;69.04;100400.47;343900;28;782;-74
2022/01/20 01:27:22;;;;;;;352.75;80.78;;;;;;;-0.52;68.99;100390.19;345284;28;1279;-74
2022/01/20 01:27:37;;;;;;;354.08;81.43;;;;;;;-0.53;68.96;100398.72;342521;28;1197;-74
2022/01/20 01:27:48;;;;;;;348.36;81.66;;;;;;;-0.54;69.18;100392.72;341230;28;1449;-74
2022/01/20 01:27:59;;;;;;;345.43;81.67;;;;;;;-0.53;69.15;100394.44;342588;28;1405;-74
2022/01/20 01:28:09;;;;;;;346.40;82.03;;;;;;;-0.52;68.91;100398.75;341281;28;1356;-74
2022/01/20 01:28:22;;;;;;;350.33;81.90;;;;;;;-0.51;69.20;100397.91;344011;28;1393;-74